UAL2603 MMUN-KATL
Flight info
| Callsign | UAL2603 |
|---|---|
| Flight time | N/A |
| Altitude | 37000 |
| Route | CUN3A CUN UM219 MYDIA M219 CIGAR M215 KNOST DCT CAMJO DCT LAIRI/N0465F380 DCT LARZZ JJEDI4 |
| Aircraft | B739/M-SDE2E3FGHIRWXY/LB1 |
Departure
| Time | 2026-05-06 23:54 |
|---|---|
| Airport | Cancún International Airport (MMUN) |
Arrival
| Time | N/A |
|---|---|
| Airport | Hartsfield Jackson Atlanta International Airport (KATL) |
| Time | Latitude | Longitude | Altitude | Speed | Heading |
|---|---|---|---|---|---|
| 2026-05-06 23:23 | 21.03671 | -86.86714 | 28 ft | 0 kts | 303° |
| 2026-05-06 23:44 | 21.03666 | -86.86707 | 28 ft | 4 kts | 303° |
| 2026-05-06 23:45 | 21.03651 | -86.86683 | 28 ft | 4 kts | 303° |
| 2026-05-06 23:45 | 21.03636 | -86.86659 | 28 ft | 4 kts | 303° |
| 2026-05-06 23:45 | 21.03627 | -86.86645 | 28 ft | 0 kts | 303° |
| 2026-05-06 23:48 | 21.03599 | -86.86675 | 28 ft | 19 kts | 210° |
| 2026-05-06 23:48 | 21.03452 | -86.86766 | 28 ft | 25 kts | 212° |
| 2026-05-06 23:48 | 21.03446 | -86.86913 | 28 ft | 23 kts | 304° |
| 2026-05-06 23:48 | 21.03534 | -86.87053 | 29 ft | 22 kts | 301° |
| 2026-05-06 23:49 | 21.03626 | -86.87199 | 29 ft | 26 kts | 304° |
| 2026-05-06 23:49 | 21.03721 | -86.87355 | 29 ft | 24 kts | 303° |
| 2026-05-06 23:49 | 21.03809 | -86.87501 | 29 ft | 23 kts | 291° |
| 2026-05-06 23:49 | 21.03832 | -86.87665 | 28 ft | 22 kts | 297° |
| 2026-05-06 23:50 | 21.03914 | -86.87802 | 29 ft | 22 kts | 305° |
| 2026-05-06 23:50 | 21.04078 | -86.88060 | 29 ft | 20 kts | 304° |
| 2026-05-06 23:50 | 21.04155 | -86.88184 | 29 ft | 20 kts | 303° |
| 2026-05-06 23:51 | 21.04229 | -86.88305 | 30 ft | 19 kts | 303° |
| 2026-05-06 23:51 | 21.04276 | -86.88383 | 30 ft | 19 kts | 303° |
| 2026-05-06 23:51 | 21.04368 | -86.88534 | 30 ft | 18 kts | 302° |
| 2026-05-06 23:51 | 21.04448 | -86.88654 | 29 ft | 26 kts | 307° |
| 2026-05-06 23:52 | 21.04572 | -86.88843 | 29 ft | 32 kts | 302° |
| 2026-05-06 23:52 | 21.04639 | -86.88960 | 29 ft | 18 kts | 293° |
| 2026-05-06 23:52 | 21.04586 | -86.89042 | 30 ft | 14 kts | 213° |
| 2026-05-06 23:52 | 21.04511 | -86.89058 | 31 ft | 11 kts | 135° |
| 2026-05-06 23:53 | 21.04469 | -86.88996 | 31 ft | 13 kts | 123° |
| 2026-05-06 23:53 | 21.04307 | -86.88736 | 34 ft | 80 kts | 123° |
| 2026-05-06 23:53 | 21.03840 | -86.87988 | 32 ft | 157 kts | 123° |
| 2026-05-06 23:53 | 21.03120 | -86.86862 | 245 ft | 202 kts | 124° |
| 2026-05-06 23:54 | 21.02332 | -86.85501 | 906 ft | 226 kts | 123° |
| 2026-05-06 23:54 | 21.01487 | -86.84054 | 2007 ft | 224 kts | 124° |
| 2026-05-06 23:54 | 21.00668 | -86.82685 | 3215 ft | 212 kts | 124° |
| 2026-05-06 23:54 | 20.99867 | -86.81360 | 3930 ft | 218 kts | 124° |
| 2026-05-06 23:55 | 20.99017 | -86.79960 | 4494 ft | 229 kts | 124° |
| 2026-05-06 23:55 | 20.97885 | -86.78684 | 4858 ft | 251 kts | 153° |
| 2026-05-06 23:55 | 20.96150 | -86.78306 | 5356 ft | 263 kts | 187° |
| 2026-05-06 23:55 | 20.94428 | -86.78958 | 6110 ft | 267 kts | 215° |
| 2026-05-06 23:56 | 20.93193 | -86.80435 | 6931 ft | 271 kts | 243° |
| 2026-05-06 23:56 | 20.92773 | -86.82401 | 7712 ft | 277 kts | 272° |
| 2026-05-06 23:56 | 20.93335 | -86.84380 | 8473 ft | 284 kts | 302° |
| 2026-05-06 23:56 | 20.94800 | -86.85786 | 9214 ft | 290 kts | 335° |
| 2026-05-06 23:57 | 20.96756 | -86.86173 | 9960 ft | 294 kts | 2° |
| 2026-05-06 23:57 | 20.98836 | -86.86052 | 10446 ft | 310 kts | 2° |
| 2026-05-06 23:57 | 21.01077 | -86.85966 | 10627 ft | 334 kts | 1° |
| 2026-05-06 23:57 | 21.03473 | -86.85821 | 10804 ft | 356 kts | 7° |
| 2026-05-06 23:58 | 21.05972 | -86.85333 | 11152 ft | 371 kts | 12° |
| 2026-05-06 23:58 | 21.08512 | -86.84712 | 11762 ft | 376 kts | 13° |
| 2026-05-06 23:58 | 21.11074 | -86.84066 | 12478 ft | 379 kts | 13° |
| 2026-05-06 23:58 | 21.13653 | -86.83428 | 13155 ft | 382 kts | 13° |
| 2026-05-06 23:59 | 21.16269 | -86.82801 | 13788 ft | 386 kts | 12° |
| 2026-05-06 23:59 | 21.18903 | -86.82185 | 14430 ft | 390 kts | 12° |
| 2026-05-06 23:59 | 21.21566 | -86.81573 | 15058 ft | 393 kts | 12° |
| 2026-05-06 23:59 | 21.24252 | -86.80960 | 15664 ft | 396 kts | 12° |
| 2026-05-07 00:00 | 21.26928 | -86.80351 | 16240 ft | 400 kts | 12° |
| 2026-05-07 00:00 | 21.29665 | -86.79729 | 16813 ft | 403 kts | 12° |
| 2026-05-07 00:00 | 21.32422 | -86.79102 | 17367 ft | 406 kts | 12° |
| 2026-05-07 00:00 | 21.35205 | -86.78469 | 17912 ft | 410 kts | 12° |
| 2026-05-07 00:01 | 21.38010 | -86.77830 | 18444 ft | 413 kts | 12° |
| 2026-05-07 00:01 | 21.40837 | -86.77185 | 18963 ft | 416 kts | 12° |
| 2026-05-07 00:01 | 21.43689 | -86.76535 | 19480 ft | 419 kts | 12° |
| 2026-05-07 00:01 | 21.46554 | -86.75880 | 19984 ft | 423 kts | 12° |
| 2026-05-07 00:02 | 21.49442 | -86.75218 | 20479 ft | 426 kts | 12° |
| 2026-05-07 00:02 | 21.52308 | -86.74560 | 20952 ft | 429 kts | 12° |
| 2026-05-07 00:02 | 21.55237 | -86.73888 | 21415 ft | 432 kts | 12° |
| 2026-05-07 00:02 | 21.58185 | -86.73210 | 21869 ft | 435 kts | 12° |
| 2026-05-07 00:03 | 21.61150 | -86.72529 | 22306 ft | 437 kts | 12° |
| 2026-05-07 00:03 | 21.64144 | -86.71841 | 22734 ft | 440 kts | 12° |
| 2026-05-07 00:03 | 21.67148 | -86.71150 | 23153 ft | 443 kts | 12° |
| 2026-05-07 00:03 | 21.70182 | -86.70452 | 23565 ft | 446 kts | 12° |
| 2026-05-07 00:04 | 21.73224 | -86.69752 | 23967 ft | 448 kts | 12° |
| 2026-05-07 00:04 | 21.76283 | -86.69048 | 24358 ft | 451 kts | 12° |
| 2026-05-07 00:04 | 21.79363 | -86.68339 | 24746 ft | 454 kts | 12° |
| 2026-05-07 00:04 | 21.82460 | -86.67625 | 25130 ft | 456 kts | 12° |
| 2026-05-07 00:05 | 21.85575 | -86.66907 | 25496 ft | 459 kts | 12° |
| 2026-05-07 00:05 | 21.88704 | -86.66186 | 25857 ft | 461 kts | 12° |
| 2026-05-07 00:05 | 21.91860 | -86.65459 | 26202 ft | 464 kts | 12° |
| 2026-05-07 00:05 | 21.94987 | -86.64738 | 26533 ft | 466 kts | 12° |
| 2026-05-07 00:06 | 21.98165 | -86.64004 | 26866 ft | 468 kts | 12° |
| 2026-05-07 00:06 | 22.01360 | -86.63266 | 27174 ft | 471 kts | 12° |
| 2026-05-07 00:06 | 22.04571 | -86.62525 | 27481 ft | 473 kts | 12° |
| 2026-05-07 00:06 | 22.07800 | -86.61778 | 27783 ft | 475 kts | 12° |
| 2026-05-07 00:07 | 22.11033 | -86.61031 | 28078 ft | 477 kts | 12° |
| 2026-05-07 00:07 | 22.14296 | -86.60275 | 28366 ft | 479 kts | 12° |
| 2026-05-07 00:07 | 22.17562 | -86.59519 | 28704 ft | 480 kts | 12° |
| 2026-05-07 00:07 | 22.20830 | -86.58763 | 29130 ft | 478 kts | 12° |
| 2026-05-07 00:08 | 22.24080 | -86.58009 | 29596 ft | 476 kts | 12° |
| 2026-05-07 00:08 | 22.27315 | -86.57259 | 30033 ft | 475 kts | 12° |
| 2026-05-07 00:08 | 22.30548 | -86.56509 | 30399 ft | 475 kts | 12° |
| 2026-05-07 00:08 | 22.33775 | -86.55760 | 30758 ft | 475 kts | 12° |
| 2026-05-07 00:09 | 22.36959 | -86.55021 | 31132 ft | 474 kts | 12° |
| 2026-05-07 00:09 | 22.40182 | -86.54273 | 31520 ft | 472 kts | 12° |
| 2026-05-07 00:09 | 22.43394 | -86.53527 | 31872 ft | 472 kts | 12° |
| 2026-05-07 00:09 | 22.46607 | -86.52782 | 32201 ft | 472 kts | 12° |
| 2026-05-07 00:10 | 22.49813 | -86.52038 | 32540 ft | 471 kts | 12° |
| 2026-05-07 00:10 | 22.53013 | -86.51294 | 32876 ft | 470 kts | 12° |
| 2026-05-07 00:10 | 22.56207 | -86.50551 | 33193 ft | 469 kts | 12° |
| 2026-05-07 00:10 | 22.59397 | -86.49809 | 33492 ft | 469 kts | 12° |
| 2026-05-07 00:11 | 22.62594 | -86.49065 | 33794 ft | 468 kts | 12° |
| 2026-05-07 00:11 | 22.65779 | -86.48323 | 34093 ft | 467 kts | 12° |
| 2026-05-07 00:11 | 22.68958 | -86.47583 | 34374 ft | 467 kts | 12° |
| 2026-05-07 00:11 | 22.72132 | -86.46843 | 34642 ft | 467 kts | 12° |
| 2026-05-07 00:12 | 22.75305 | -86.46103 | 34911 ft | 466 kts | 12° |
| 2026-05-07 00:12 | 22.78475 | -86.45364 | 35175 ft | 465 kts | 12° |
| 2026-05-07 00:12 | 22.81640 | -86.44626 | 35423 ft | 465 kts | 12° |
| 2026-05-07 00:12 | 22.84804 | -86.43888 | 35665 ft | 464 kts | 12° |
| 2026-05-07 00:13 | 22.87961 | -86.43152 | 35904 ft | 464 kts | 12° |
| 2026-05-07 00:13 | 22.91072 | -86.42426 | 36129 ft | 463 kts | 12° |
| 2026-05-07 00:13 | 22.94222 | -86.41690 | 36340 ft | 463 kts | 12° |
| 2026-05-07 00:13 | 22.97374 | -86.40953 | 36525 ft | 464 kts | 12° |
| 2026-05-07 00:14 | 23.00529 | -86.40216 | 36715 ft | 464 kts | 12° |
| 2026-05-07 00:14 | 23.03685 | -86.39478 | 36902 ft | 464 kts | 12° |
| 2026-05-07 00:14 | 23.10021 | -86.37994 | 36920 ft | 466 kts | 12° |
| 2026-05-07 00:15 | 23.16340 | -86.36513 | 36918 ft | 463 kts | 12° |
| 2026-05-07 00:15 | 23.22592 | -86.35046 | 36928 ft | 461 kts | 12° |
| 2026-05-07 00:16 | 23.28851 | -86.33577 | 36929 ft | 459 kts | 12° |
| 2026-05-07 00:16 | 23.35101 | -86.32109 | 36928 ft | 459 kts | 12° |
| 2026-05-07 00:17 | 23.41347 | -86.30641 | 36930 ft | 459 kts | 12° |
| 2026-05-07 00:17 | 23.47596 | -86.29170 | 36929 ft | 460 kts | 12° |
| 2026-05-07 00:18 | 23.53823 | -86.27702 | 36928 ft | 461 kts | 12° |
| 2026-05-07 00:18 | 23.60114 | -86.26218 | 36929 ft | 463 kts | 12° |
| 2026-05-07 00:19 | 23.66427 | -86.24728 | 36930 ft | 465 kts | 12° |
| 2026-05-07 00:19 | 23.72755 | -86.23232 | 36911 ft | 466 kts | 12° |
| 2026-05-07 00:20 | 23.79102 | -86.21730 | 36928 ft | 467 kts | 12° |
| 2026-05-07 00:20 | 23.85453 | -86.20226 | 36930 ft | 467 kts | 12° |
| 2026-05-07 00:21 | 23.91800 | -86.18721 | 36922 ft | 466 kts | 12° |
| 2026-05-07 00:21 | 23.98149 | -86.17215 | 36926 ft | 466 kts | 12° |
| 2026-05-07 00:22 | 24.04421 | -86.15478 | 36915 ft | 465 kts | 21° |
| 2026-05-07 00:22 | 24.10153 | -86.12232 | 36932 ft | 463 kts | 30° |
| 2026-05-07 00:23 | 24.15696 | -86.08707 | 36930 ft | 463 kts | 30° |
| 2026-05-07 00:23 | 24.21282 | -86.05186 | 36927 ft | 463 kts | 30° |
| 2026-05-07 00:24 | 24.26878 | -86.01701 | 36920 ft | 462 kts | 30° |
| 2026-05-07 00:24 | 24.32479 | -85.98227 | 36930 ft | 462 kts | 30° |
| 2026-05-07 00:25 | 24.38033 | -85.94780 | 36927 ft | 462 kts | 30° |
| 2026-05-07 00:25 | 24.43634 | -85.91298 | 36914 ft | 462 kts | 30° |
| 2026-05-07 00:26 | 24.49243 | -85.87807 | 36931 ft | 462 kts | 30° |
| 2026-05-07 00:26 | 24.54815 | -85.84335 | 36929 ft | 463 kts | 30° |
| 2026-05-07 00:27 | 24.60423 | -85.80837 | 36927 ft | 463 kts | 30° |
| 2026-05-07 00:27 | 24.66042 | -85.77328 | 36930 ft | 464 kts | 30° |
| 2026-05-07 00:28 | 24.71658 | -85.73818 | 36929 ft | 464 kts | 30° |
| 2026-05-07 00:28 | 24.77241 | -85.70324 | 36918 ft | 464 kts | 30° |
| 2026-05-07 00:29 | 24.82860 | -85.66805 | 36921 ft | 464 kts | 30° |
| 2026-05-07 00:30 | 24.94113 | -85.59744 | 36917 ft | 465 kts | 30° |
| 2026-05-07 00:30 | 24.99730 | -85.56214 | 36921 ft | 465 kts | 30° |
| 2026-05-07 00:31 | 25.05313 | -85.52702 | 36930 ft | 464 kts | 30° |
| 2026-05-07 00:31 | 25.10927 | -85.49166 | 36913 ft | 464 kts | 30° |
| 2026-05-07 00:32 | 25.16543 | -85.45619 | 36927 ft | 464 kts | 30° |
| 2026-05-07 00:32 | 25.22155 | -85.42069 | 36930 ft | 464 kts | 30° |
| 2026-05-07 00:33 | 25.27721 | -85.38545 | 36929 ft | 464 kts | 30° |
| 2026-05-07 00:33 | 25.33431 | -85.35254 | 36916 ft | 463 kts | 20° |
| 2026-05-07 00:34 | 25.39706 | -85.33768 | 36940 ft | 462 kts | 5° |
| 2026-05-07 00:34 | 25.46119 | -85.33180 | 36932 ft | 462 kts | 4° |
| 2026-05-07 00:35 | 25.52537 | -85.32592 | 36921 ft | 463 kts | 5° |
| 2026-05-07 00:35 | 25.58956 | -85.31953 | 36928 ft | 463 kts | 5° |
| 2026-05-07 00:36 | 25.65385 | -85.31290 | 36930 ft | 463 kts | 5° |
| 2026-05-07 00:36 | 25.71805 | -85.30626 | 36917 ft | 464 kts | 5° |
| 2026-05-07 00:37 | 25.78238 | -85.29961 | 36922 ft | 464 kts | 5° |